Sidney, MT (59270)

5:16 PM MDT on April 25, 2017 (GMT -0600)
Bitteroot DR | | Change Station

Elev 1995 ft 47.73 °N, 104.18 °W | Updated 8 minutes ago

Mostly Cloudy
Mostly Cloudy
39.5 °F
Feels Like 32 °F
N
14.0
Wind Variable Wind from NE

Today
High -- | Low -- °F
--% Chance of Precip.
Yesterday
High -- | Low -- °F
Precip. -- in
Pressure 30.03 in
Visibility 10.0 miles
Clouds Mostly Cloudy 3600 ft
Windchill 32 °F
Dew Point 26 °F
Humidity 59%
Rainfall 0.00 in
Snow Depth Not available.
5:48 AM 8:01 PM
Waning Crescent, 0% visible
METAR KSDY 252256Z AUTO 06011G19KT 10SM BKN036 04/M04 A2996 RMK AO2 SLP169 T00441044
Pressure 30.03 in
Visibility 10.0 miles
Clouds Mostly Cloudy 3600 ft
Windchill 32 °F
Dew Point 26 °F
Humidity 59%
Rainfall 0.00 in
Snow Depth Not available.
5:48 AM 8:01 PM
Waning Crescent, 0% visible
METAR KSDY 252256Z AUTO 06011G19KT 10SM BKN036 04/M04 A2996 RMK AO2 SLP169 T00441044

Get Severe Weather Alerts

Thanks for signing up!

Be on the lookout for a verification email in your inbox.

You'll start receiving the daily forecast at 8 AM.

×

10-Day Weather Forecast

Almanac

Astronomy

Apr. 25, 2017 Rise Set
Actual Time
Civil Twilight
Nautical Twilight
Astronomical Twilight
Moon
Length of Visible Light
Length of Day
Tomorrow will be .
, % of the Moon is Illuminated

Today's Extremes

State Highs State Lows

Community

WunderPhotos

WunderBlog® & News

Nearby

Air Quality

  Air Quality AQ Index Pollutant
Not available.

Snow Depth

Station Depth Elevation

Earthquake Activity

City Distance Mag. Time & Date
Minimum magnitude displayed is 2.5.

Coastal Water Temperatures

Place Temperature

Stations

Nearby Weather Stations

Station Location Temp. Windchill Dew Point Humidity Wind Precip. Elev Updated Type
                   

Watches & Warnings

There are currently no watches in effect.